Time;durP1;ratioP1;P1;durP2;ratioP2;P2;SDS_P1;SDS_P2;PMS_P1;PMS_P2;Temp;Humidity;BMP_temperature;BMP_pressure;BME280_temperature;BME280_humidity;BME280_pressure;Samples;Min_cycle;Max_cycle;Signal;HPM_P1;HPM_P2
2021/12/30 00:01:10;;;;;;;;;;;13.50;99.90;;;14.08;100.00;100318.13;4938034;29;19931;-79
2021/12/30 00:03:38;;;;;;;;;;;13.50;99.90;;;14.12;100.00;100308.31;4952353;28;20025;-79
2021/12/30 00:06:06;;;;;;;;;;;13.40;99.90;;;14.13;100.00;100313.56;4954470;29;19931;-78
2021/12/30 00:08:34;;;;;;;;;;;13.50;99.90;;;14.09;100.00;100325.16;4953825;28;20463;-78
2021/12/30 00:11:01;;;;;;;;;;;12.90;99.90;;;14.12;100.00;100321.53;4938098;29;20025;-79
2021/12/30 00:13:28;;;;;;;;;;;13.50;99.90;;;14.01;100.00;100321.97;4952742;28;19931;-79
2021/12/30 00:15:55;;;;;;;;;;;13.50;99.90;;;14.01;100.00;100325.44;4938165;29;20362;-79
2021/12/30 00:18:23;;;;;;;;;;;13.50;99.90;;;14.12;100.00;100326.81;4938331;29;19950;-78
2021/12/30 00:20:50;;;;;;;;;;;13.50;99.90;;;14.17;100.00;100335.44;4938049;29;20464;-78
2021/12/30 00:23:17;;;;;;;;;;;13.50;99.90;;;14.14;100.00;100338.22;4936964;29;20001;-78
2021/12/30 00:25:44;;;;;;;;;;;13.40;99.90;;;14.06;100.00;100337.66;4954533;29;19931;-79
2021/12/30 00:28:18;;;;;;;;;;;13.40;99.90;;;14.04;100.00;100338.56;4938711;29;19931;-79
2021/12/30 00:30:46;;;;;;;;;;;13.40;99.90;;;14.00;100.00;100349.34;4939144;29;19931;-81
2021/12/30 00:33:13;;;;;;;;;;;13.40;99.90;;;13.92;100.00;100343.47;4938042;29;19958;-78
2021/12/30 00:35:45;;;;;;;;;;;13.30;99.90;;;13.90;100.00;100354.13;4956039;29;19927;-79
2021/12/30 00:38:13;;;;;;;;;;;13.40;99.90;;;13.85;100.00;100364.88;4947950;28;19976;-78
2021/12/30 00:40:40;;;;;;;;;;;13.30;99.90;;;13.80;100.00;100365.97;4964272;28;19950;-79
2021/12/30 00:43:07;;;;;;;;;;;13.20;99.90;;;13.85;100.00;100375.44;4962919;28;19926;-78
2021/12/30 00:45:35;;;;;;;;;;;13.30;99.90;;;13.83;100.00;100377.28;4964405;28;19930;-79
2021/12/30 00:48:05;;;;;;;;;;;13.20;99.90;;;13.81;100.00;100375.63;4978005;28;19914;-79
2021/12/30 00:50:33;;;;;;;;;;;13.20;99.90;;;13.78;100.00;100373.94;4962908;28;19983;-78
2021/12/30 00:53:01;;;;;;;;;;;13.20;99.90;;;13.78;100.00;100391.59;4969359;28;19930;-80
2021/12/30 00:55:28;;;;;;;;;;;13.20;99.90;;;13.84;100.00;100391.38;4975039;28;19934;-79
2021/12/30 00:57:55;;;;;;;;;;;13.20;99.90;;;13.88;100.00;100382.38;4963115;28;19973;-79
2021/12/30 01:00:22;;;;;;;;;;;13.20;99.90;;;13.88;100.00;100393.84;4979187;28;19969;-79
2021/12/30 01:02:50;;;;;;;;;;;13.20;99.90;;;13.75;100.00;100396.09;4961360;28;19930;-79
2021/12/30 01:05:17;;;;;;;;;;;13.20;99.90;;;13.81;100.00;100410.84;4961761;28;20139;-78
2021/12/30 01:07:44;;;;;;;;;;;13.20;99.90;;;13.84;100.00;100417.81;4961164;28;19941;-80
2021/12/30 01:10:14;;;;;;;;;;;13.20;99.90;;;13.85;100.00;100417.75;4976642;28;19969;-79
2021/12/30 01:12:41;;;;;;;;;;;13.20;99.90;;;13.87;100.00;100415.91;4944776;28;20398;-79
2021/12/30 01:15:11;;;;;;;;;;;13.20;99.90;;;13.82;100.00;100414.38;4976762;28;20041;-79
2021/12/30 01:17:52;;;;;;;;;;;13.20;99.90;;;13.73;100.00;100432.28;4961706;28;19968;-79
2021/12/30 01:20:20;;;;;;;;;;;13.10;99.90;;;13.71;100.00;100423.53;4976809;28;19936;-79
2021/12/30 01:22:48;;;;;;;;;;;13.10;99.90;;;13.69;100.00;100416.59;4959674;28;19934;-79
2021/12/30 01:25:16;;;;;;;;;;;13.10;99.90;;;13.72;100.00;100429.72;4960096;28;20330;-79
2021/12/30 01:27:44;;;;;;;;;;;13.10;99.90;;;13.70;100.00;100431.53;4958962;28;19937;-80
2021/12/30 01:30:14;;;;;;;;;;;13.10;99.90;;;13.83;100.00;100445.19;4959628;28;20002;-78
2021/12/30 01:32:41;;;;;;;;;;;13.10;99.90;;;13.78;100.00;100452.41;4975133;28;20406;-78
2021/12/30 01:35:10;;;;;;;;;;;13.10;99.90;;;13.85;100.00;100459.19;4975770;28;19926;-79
2021/12/30 01:37:38;;;;;;;;;;;13.20;99.90;;;13.88;100.00;100470.53;4975633;28;20006;-78
2021/12/30 01:40:10;;;;;;;;;;;13.30;99.90;;;13.97;100.00;100471.97;4945118;28;19997;-79
2021/12/30 01:42:37;;;;;;;;;;;13.20;99.90;;;13.90;100.00;100473.13;4959163;28;20167;-79
2021/12/30 01:45:08;;;;;;;;;;;13.20;99.90;;;13.93;100.00;100485.38;4973480;28;19938;-79
2021/12/30 01:47:37;;;;;;;;;;;13.20;99.90;;;13.86;100.00;100477.66;4958051;28;19956;-82
2021/12/30 01:50:05;;;;;;;;;;;13.20;99.90;;;13.95;100.00;100496.75;4958035;28;20553;-78
2021/12/30 01:52:31;;;;;;;;;;;13.20;99.90;;;13.89;100.00;100500.47;4956961;28;19926;-79
2021/12/30 01:54:58;;;;;;;;;;;13.20;99.90;;;13.88;100.00;100501.41;4957699;28;20001;-79
2021/12/30 01:57:25;;;;;;;;;;;13.40;99.90;;;13.88;100.00;100502.28;4942767;28;19930;-77
2021/12/30 01:59:52;;;;;;;;;;;13.20;99.90;;;13.83;100.00;100501.59;4973537;28;19930;-78
2021/12/30 02:02:19;;;;;;;;;;;13.10;99.90;;;13.80;100.00;100496.38;4973534;28;19930;-79
2021/12/30 02:04:47;;;;;;;;;;;13.10;99.90;;;13.78;100.00;100502.66;4942087;28;19926;-78
2021/12/30 02:07:14;;;;;;;;;;;13.10;99.90;;;13.72;100.00;100503.75;4960090;28;20352;-78
2021/12/30 02:09:41;;;;;;;;;;;11.10;99.90;;;13.78;100.00;100510.59;4942628;28;19931;-79
2021/12/30 02:12:09;;;;;;;;;;;13.10;99.90;;;13.84;100.00;100505.06;4943960;28;20025;-80
2021/12/30 02:14:36;;;;;;;;;;;13.10;99.90;;;13.77;100.00;100504.44;4941896;28;19930;-78
2021/12/30 02:17:05;;;;;;;;;;;13.10;99.90;;;13.71;100.00;100496.72;4959248;28;19930;-78
2021/12/30 02:19:32;;;;;;;;;;;13.10;99.90;;;13.73;100.00;100498.38;4974910;28;19930;-78
2021/12/30 02:21:59;;;;;;;;;;;13.10;99.90;;;13.78;100.00;100498.22;4960583;28;19993;-78
2021/12/30 02:24:27;;;;;;;;;;;13.10;99.90;;;13.68;100.00;100496.84;4959924;28;19930;-78
2021/12/30 02:26:54;;;;;;;;;;;13.30;99.90;;;13.71;100.00;100496.72;4944691;28;20380;-78
2021/12/30 02:29:21;;;;;;;;;;;13.10;99.90;;;13.75;100.00;100499.22;4960256;28;19937;-79
2021/12/30 02:31:49;;;;;;;;;;;13.10;99.90;;;13.77;100.00;100506.22;4959418;28;19938;-79
2021/12/30 02:34:16;;;;;;;;;;;13.10;99.90;;;13.68;100.00;100502.97;4956329;28;19922;-78
2021/12/30 02:36:47;;;;;;;;;;;13.20;99.90;;;13.71;100.00;100508.16;4947284;28;19996;-78
2021/12/30 02:39:14;;;;;;;;;;;13.10;99.90;;;13.74;100.00;100501.91;4957585;28;19930;-79
2021/12/30 02:41:41;;;;;;;;;;;13.10;99.90;;;13.74;100.00;100512.47;4958648;28;19936;-78
2021/12/30 02:44:09;;;;;;;;;;;13.10;99.90;;;13.74;100.00;100510.72;4958370;28;19930;-78
2021/12/30 02:46:39;;;;;;;;;;;13.10;99.90;;;13.81;100.00;100515.78;4974194;28;19926;-78
2021/12/30 02:49:06;;;;;;;;;;;13.10;99.90;;;13.82;100.00;100523.66;4958084;28;19937;-78
2021/12/30 02:51:33;;;;;;;;;;;13.30;99.90;;;13.85;100.00;100522.66;4958631;28;20474;-79
2021/12/30 02:54:01;;;;;;;;;;;13.10;99.90;;;13.82;100.00;100523.66;4956810;28;19926;-79
2021/12/30 02:56:29;;;;;;;;;;;13.30;99.90;;;13.83;100.00;100522.75;4958342;28;19976;-79
2021/12/30 02:58:57;;;;;;;;;;;13.20;99.90;;;13.85;100.00;100515.63;4958457;28;19965;-78
2021/12/30 03:01:29;;;;;;;;;;;13.20;99.90;;;13.89;100.00;100517.22;4957893;28;19936;-79
2021/12/30 03:03:57;;;;;;;;;;;13.20;99.90;;;13.87;100.00;100521.72;4972786;28;20021;-79
2021/12/30 03:06:25;;;;;;;;;;;13.30;99.90;;;13.75;100.00;100517.72;4958457;28;19957;-79
2021/12/30 03:08:53;;;;;;;;;;;13.30;99.90;;;13.77;100.00;100527.38;4941773;28;19933;-79
2021/12/30 03:11:22;;;;;;;;;;;13.10;99.90;;;13.78;100.00;100529.09;4957545;28;19930;-77
2021/12/30 03:13:49;;;;;;;;;;;13.20;99.90;;;13.79;100.00;100528.19;4956672;28;19937;-79
2021/12/30 03:16:22;;;;;;;;;;;13.20;99.90;;;13.85;100.00;100528.84;4958045;28;19930;-79
2021/12/30 03:18:50;;;;;;;;;;;13.50;99.90;;;13.90;100.00;100528.69;4957393;28;20457;-79
2021/12/30 03:21:19;;;;;;;;;;;13.30;99.90;;;13.85;100.00;100538.53;4960656;28;19930;-79
2021/12/30 03:23:47;;;;;;;;;;;13.30;99.90;;;13.87;100.00;100549.94;4959146;28;19930;-78
2021/12/30 03:26:14;;;;;;;;;;;13.20;99.90;;;13.88;100.00;100563.09;4961288;28;19936;-78
2021/12/30 03:28:43;;;;;;;;;;;13.20;99.90;;;13.92;100.00;100555.94;4961078;28;19930;-79
2021/12/30 03:31:12;;;;;;;;;;;13.30;99.90;;;13.96;100.00;100552.25;4945516;28;19930;-78
2021/12/30 03:33:40;;;;;;;;;;;13.30;99.90;;;13.96;100.00;100561.97;4959830;28;19934;-79
2021/12/30 03:36:08;;;;;;;;;;;13.40;99.90;;;13.99;100.00;100567.16;4944583;28;19929;-79
2021/12/30 03:38:37;;;;;;;;;;;13.30;99.90;;;13.99;100.00;100565.38;4961527;28;19930;-79
2021/12/30 03:41:07;;;;;;;;;;;13.30;99.90;;;13.99;100.00;100570.66;4945014;28;19933;-79
2021/12/30 03:43:35;;;;;;;;;;;13.40;99.90;;;14.01;100.00;100567.97;4976406;28;19930;-78
2021/12/30 03:46:03;;;;;;;;;;;13.40;99.90;;;14.06;100.00;100579.25;4961064;28;20029;-79
2021/12/30 03:48:33;;;;;;;;;;;13.40;99.90;;;14.06;100.00;100581.91;4945661;28;19988;-79
2021/12/30 03:51:06;;;;;;;;;;;13.40;99.90;;;14.08;100.00;100581.84;4960980;28;19926;-78
2021/12/30 03:53:38;;;;;;;;;;;13.40;99.90;;;14.06;100.00;100581.91;4961535;28;20021;-79
2021/12/30 03:56:06;;;;;;;;;;;13.40;99.90;;;14.12;100.00;100592.25;4961915;28;19930;-79
2021/12/30 03:58:33;;;;;;;;;;;13.40;99.90;;;14.12;100.00;100588.75;4961065;28;20635;-80
2021/12/30 04:01:01;;;;;;;;;;;11.70;99.90;;;14.06;100.00;100584.53;4961489;28;20018;-78
2021/12/30 04:03:28;;;;;;;;;;;13.40;99.90;;;14.01;100.00;100578.56;4960142;28;19934;-79
2021/12/30 04:05:55;;;;;;;;;;;13.40;99.90;;;14.08;100.00;100579.22;4946179;28;19933;-79
2021/12/30 04:08:22;;;;;;;;;;;13.60;99.90;;;14.01;100.00;100578.56;4947483;28;19953;-79
2021/12/30 04:10:49;;;;;;;;;;;13.40;99.90;;;14.06;100.00;100576.59;4963917;28;19930;-79
2021/12/30 04:13:16;;;;;;;;;;;13.70;99.90;;;14.01;100.00;100566.19;4978486;28;19930;-80
2021/12/30 04:15:43;;;;;;;;;;;13.50;99.90;;;14.00;100.00;100566.25;4963718;28;19934;-79
2021/12/30 04:18:10;;;;;;;;;;;13.50;99.90;;;14.12;100.00;100576.38;4964217;28;19926;-79
2021/12/30 04:20:37;;;;;;;;;;;13.50;99.90;;;14.12;100.00;100575.53;4981126;28;19937;-79
2021/12/30 04:23:04;;;;;;;;;;;13.50;99.90;;;14.02;100.00;100582.94;4979342;28;19945;-79
2021/12/30 04:25:31;;;;;;;;;;;13.50;99.90;;;14.04;100.00;100579.28;4942966;28;20355;-78
2021/12/30 04:27:58;;;;;;;;;;;13.50;99.90;;;14.18;100.00;100585.88;4941048;29;19938;-79
2021/12/30 04:30:26;;;;;;;;;;;13.50;99.90;;;14.16;100.00;100585.97;4923907;29;19926;-79
2021/12/30 04:32:53;;;;;;;;;;;13.50;99.90;;;14.10;100.00;100588.78;4939194;28;19930;-79
2021/12/30 04:35:20;;;;;;;;;;;13.50;99.90;;;14.12;100.00;100594.03;4956095;28;19931;-80
2021/12/30 04:37:47;;;;;;;;;;;13.50;99.90;;;14.15;100.00;100601.88;4960265;28;19956;-79
2021/12/30 04:40:15;;;;;;;;;;;13.60;99.90;;;14.16;100.00;100598.31;4960023;28;19926;-78
2021/12/30 04:42:43;;;;;;;;;;;13.60;99.90;;;14.09;100.00;100584.44;4959782;28;19933;-79
2021/12/30 04:45:12;;;;;;;;;;;13.60;99.90;;;14.15;100.00;100592.16;4960053;28;20009;-79
2021/12/30 04:47:40;;;;;;;;;;;13.60;99.90;;;14.18;100.00;100597.34;4960355;28;19972;-79
2021/12/30 04:50:13;;;;;;;;;;;13.50;99.90;;;14.11;100.00;100603.75;4976480;28;19927;-79
2021/12/30 04:52:40;;;;;;;;;;;13.60;99.90;;;14.18;100.00;100613.22;4959009;28;20643;-79
2021/12/30 04:55:08;;;;;;;;;;;13.60;99.90;;;14.17;100.00;100623.84;4958709;28;19926;-78
2021/12/30 04:57:35;;;;;;;;;;;13.60;99.90;;;14.25;100.00;100623.56;4960383;28;20007;-79
2021/12/30 05:00:05;;;;;;;;;;;13.60;99.90;;;14.21;100.00;100627.25;4960121;28;20172;-78
2021/12/30 05:02:46;;;;;;;;;;;13.70;99.90;;;14.24;100.00;100630.66;4967902;28;19926;-78
2021/12/30 05:05:14;;;;;;;;;;;13.70;99.90;;;14.17;100.00;100629.13;4971373;28;19930;-79
2021/12/30 05:07:40;;;;;;;;;;;13.70;99.90;;;14.15;100.00;100634.50;4954411;28;19926;-78
2021/12/30 05:10:08;;;;;;;;;;;14.10;99.90;;;14.23;100.00;100639.53;4970478;28;19926;-78
2021/12/30 05:12:35;;;;;;;;;;;13.70;99.90;;;14.22;100.00;100631.63;4968480;28;20307;-80
2021/12/30 05:15:02;;;;;;;;;;;13.70;99.90;;;14.21;100.00;100632.56;4936608;28;19926;-79
2021/12/30 05:17:30;;;;;;;;;;;13.80;99.90;;;14.26;100.00;100636.78;4968458;28;19941;-78
2021/12/30 05:19:57;;;;;;;;;;;13.70;99.90;;;14.25;100.00;100628.88;4936177;28;20409;-79
2021/12/30 05:22:24;;;;;;;;;;;13.70;99.90;;;14.21;100.00;100627.25;4951157;28;20025;-79
2021/12/30 05:24:50;;;;;;;;;;;13.80;99.90;;;14.24;100.00;100628.03;4966463;28;19926;-79
2021/12/30 05:27:19;;;;;;;;;;;13.80;99.90;;;14.29;100.00;100630.50;4934580;28;19930;-79
2021/12/30 05:29:46;;;;;;;;;;;13.90;99.90;;;14.24;100.00;100645.66;4943814;28;19994;-79
2021/12/30 05:32:13;;;;;;;;;;;13.80;99.90;;;14.29;100.00;100634.00;4975036;28;19921;-79
2021/12/30 05:34:40;;;;;;;;;;;13.80;99.90;;;14.32;100.00;100638.34;4972443;28;20033;-79
2021/12/30 05:37:07;;;;;;;;;;;13.70;99.90;;;14.32;100.00;100641.00;4962389;28;19953;-78
2021/12/30 05:39:39;;;;;;;;;;;13.70;99.90;;;14.36;100.00;100639.06;4962595;28;19926;-78
2021/12/30 05:42:06;;;;;;;;;;;13.80;99.90;;;14.29;100.00;100643.75;4962319;28;19933;-79
2021/12/30 05:44:33;;;;;;;;;;;13.80;99.90;;;14.36;100.00;100636.41;4959789;28;19934;-79
2021/12/30 05:47:00;;;;;;;;;;;13.80;99.90;;;14.36;100.00;100647.88;4946073;28;19930;-79
2021/12/30 05:49:27;;;;;;;;;;;13.80;99.90;;;14.29;100.00;100651.69;4978321;28;19930;-80
2021/12/30 05:51:54;;;;;;;;;;;13.80;99.90;;;14.33;100.00;100651.50;4961531;28;19994;-78
2021/12/30 05:54:21;;;;;;;;;;;14.90;99.90;;;14.37;100.00;100659.34;4945807;28;19930;-79
2021/12/30 05:56:51;;;;;;;;;;;13.80;99.90;;;14.34;100.00;100647.09;4946391;28;19953;-79
2021/12/30 05:59:18;;;;;;;;;;;14.20;99.90;;;14.41;100.00;100666.25;4962806;28;19932;-79
2021/12/30 06:01:45;;;;;;;;;;;13.90;99.90;;;14.37;100.00;100654.06;4963207;28;19934;-79
2021/12/30 06:04:12;;;;;;;;;;;13.80;99.90;;;14.45;100.00;100673.16;4976647;28;19931;-78
2021/12/30 06:06:39;;;;;;;;;;;13.90;99.90;;;14.45;100.00;100667.88;4946837;28;19934;-79
2021/12/30 06:09:06;;;;;;;;;;;13.80;99.90;;;14.40;100.00;100673.31;4963081;28;19927;-80
2021/12/30 06:11:33;;;;;;;;;;;13.80;99.90;;;14.49;100.00;100676.59;4942488;28;20461;-79
2021/12/30 06:14:00;;;;;;;;;;;13.90;99.90;;;14.38;100.00;100669.88;4957615;28;19930;-79
2021/12/30 06:16:27;;;;;;;;;;;13.80;99.90;;;14.31;100.00;100674.50;4957595;28;19930;-78
2021/12/30 06:18:54;;;;;;;;;;;13.90;99.90;;;14.31;100.00;100666.56;4942129;28;20008;-79
2021/12/30 06:21:21;;;;;;;;;;;13.80;99.90;;;14.37;100.00;100680.53;4957836;28;19933;-78
2021/12/30 06:23:48;;;;;;;;;;;13.80;99.90;;;14.36;100.00;100679.66;4947819;29;19937;-79
2021/12/30 06:26:15;;;;;;;;;;;13.80;99.90;;;14.38;100.00;100679.63;4939836;29;20021;-79
2021/12/30 06:28:42;;;;;;;;;;;13.80;99.90;;;14.31;100.00;100689.53;4939032;29;20046;-78
2021/12/30 06:31:09;;;;;;;;;;;13.80;99.90;;;14.39;100.00;100690.13;4939860;29;19941;-78
2021/12/30 06:33:39;;;;;;;;;;;13.90;99.90;;;14.40;100.00;100693.66;4955475;29;19934;-80
2021/12/30 06:36:06;;;;;;;;;;;12.80;99.90;;;14.39;100.00;100687.47;4938950;29;20003;-79
2021/12/30 06:38:33;;;;;;;;;;;14.00;99.90;;;14.37;100.00;100694.63;4954631;28;20469;-79
2021/12/30 06:41:01;;;;;;;;;;;13.90;99.90;;;14.41;100.00;100693.59;4972780;28;19948;-80
2021/12/30 06:43:28;;;;;;;;;;;13.90;99.90;;;14.40;100.00;100702.44;4973392;28;19994;-79
2021/12/30 06:45:56;;;;;;;;;;;13.90;99.90;;;14.38;100.00;100706.94;4957934;28;20032;-79
2021/12/30 06:48:23;;;;;;;;;;;13.90;99.90;;;14.38;100.00;100711.38;4957690;28;19961;-80
2021/12/30 06:50:53;;;;;;;;;;;13.90;99.90;;;14.44;100.00;100712.03;4974370;28;19930;-79
2021/12/30 06:53:22;;;;;;;;;;;13.90;99.90;;;14.43;100.00;100720.00;4942096;28;19938;-79
2021/12/30 06:55:50;;;;;;;;;;;14.00;99.90;;;14.42;100.00;100715.63;4959052;28;19930;-79
2021/12/30 06:58:17;;;;;;;;;;;13.90;99.90;;;14.54;100.00;100717.88;4944553;28;19926;-79
2021/12/30 07:00:45;;;;;;;;;;;13.90;99.90;;;14.56;100.00;100717.78;4944637;28;19961;-79
2021/12/30 07:03:13;;;;;;;;;;;13.90;99.90;;;14.50;100.00;100715.38;4976002;28;19934;-78
2021/12/30 07:05:40;;;;;;;;;;;14.00;99.90;;;14.46;100.00;100718.13;4960215;28;19999;-80
2021/12/30 07:08:08;;;;;;;;;;;14.00;99.90;;;14.48;100.00;100726.00;4958310;28;19926;-80
2021/12/30 07:10:35;;;;;;;;;;;14.00;99.90;;;14.44;100.00;100737.63;4943896;28;20028;-80
2021/12/30 07:13:02;;;;;;;;;;;13.90;99.90;;;14.44;100.00;100746.44;4959148;28;19956;-80
2021/12/30 07:15:29;;;;;;;;;;;13.90;99.90;;;14.49;100.00;100742.78;4950044;28;19940;-79
2021/12/30 07:17:55;;;;;;;;;;;14.00;99.90;;;14.42;100.00;100747.41;4981506;28;19932;-79
2021/12/30 07:20:22;;;;;;;;;;;14.00;99.90;;;14.49;100.00;100748.91;4949612;28;19944;-80
2021/12/30 07:22:49;;;;;;;;;;;13.90;99.90;;;14.51;100.00;100767.41;4963918;28;19952;-79
2021/12/30 07:25:17;;;;;;;;;;;13.90;99.90;;;14.52;100.00;100761.19;4948766;28;19926;-80
2021/12/30 07:27:47;;;;;;;;;;;14.00;99.90;;;14.57;100.00;100768.06;4963755;28;19937;-79
2021/12/30 07:30:15;;;;;;;;;;;13.90;99.90;;;14.52;100.00;100759.41;4964414;28;20397;-79
2021/12/30 07:32:42;;;;;;;;;;;14.00;99.90;;;14.49;100.00;100759.50;4964026;28;20401;-78
2021/12/30 07:35:09;;;;;;;;;;;14.00;99.90;;;14.45;100.00;100772.00;4964549;28;19933;-79
2021/12/30 07:37:36;;;;;;;;;;;13.90;99.90;;;14.51;100.00;100770.91;4979451;28;19937;-79
2021/12/30 07:40:04;;;;;;;;;;;14.00;99.90;;;14.51;100.00;100775.34;4963589;28;20048;-79
2021/12/30 07:42:31;;;;;;;;;;;14.10;99.90;;;14.51;100.00;100778.84;4963016;28;20035;-79
2021/12/30 07:44:58;;;;;;;;;;;12.90;99.90;;;14.58;100.00;100776.84;4963684;28;19937;-79
2021/12/30 07:47:25;;;;;;;;;;;14.10;99.90;;;14.56;100.00;100784.88;4946382;28;20662;-78
2021/12/30 07:49:52;;;;;;;;;;;14.10;99.90;;;14.53;100.00;100784.97;4959466;28;19930;-79
2021/12/30 07:52:19;;;;;;;;;;;14.10;99.90;;;14.58;100.00;100779.50;4957824;28;19965;-80
2021/12/30 07:54:46;;;;;;;;;;;14.30;99.90;;;14.69;100.00;100777.34;4957411;28;19926;-79
2021/12/30 07:57:23;;;;;;;;;;;14.10;99.90;;;14.66;100.00;100792.47;4961975;28;20029;-80
2021/12/30 07:59:51;;;;;;;;;;;14.10;99.90;;;14.65;100.00;100781.03;4962119;28;20013;-79
2021/12/30 08:02:19;;;;;;;;;;;14.50;99.90;;;14.60;100.00;100786.47;4962789;28;20384;-80
2021/12/30 08:04:46;;;;;;;;;;;14.10;99.90;;;14.55;100.00;100791.09;4927453;29;19977;-79
2021/12/30 08:07:19;;;;;;;;;;;14.10;99.90;;;14.54;100.00;100776.13;4958763;29;19934;-79
2021/12/30 08:09:46;;;;;;;;;;;14.20;99.90;;;14.61;100.00;100779.41;4943116;29;19931;-78
2021/12/30 08:12:13;;;;;;;;;;;14.20;99.90;;;14.60;100.00;100788.28;4958753;29;19958;-80
2021/12/30 08:14:40;;;;;;;;;;;14.10;99.90;;;14.59;100.00;100781.22;4943236;29;19934;-78
2021/12/30 08:17:06;;;;;;;;;;;14.10;99.90;;;14.62;100.00;100797.03;4942904;29;19936;-79
2021/12/30 08:19:34;;;;;;;;;;;14.20;99.90;;;14.64;100.00;100803.16;4927105;29;19990;-79
2021/12/30 08:22:02;;;;;;;;;;;14.10;99.90;;;14.58;100.00;100796.28;4973769;28;19938;-79
2021/12/30 08:24:29;;;;;;;;;;;14.10;99.90;;;14.63;100.00;100796.13;4957639;28;19927;-79
2021/12/30 08:27:13;;;;;;;;;;;14.20;99.90;;;14.67;100.00;100805.69;4972153;28;19931;-79
2021/12/30 08:29:41;;;;;;;;;;;14.20;99.90;;;14.69;100.00;100809.13;4957617;28;19945;-79
2021/12/30 08:32:11;;;;;;;;;;;14.20;99.90;;;14.76;100.00;100816.94;4973096;28;20483;-78
2021/12/30 08:34:39;;;;;;;;;;;14.20;99.90;;;14.77;100.00;100823.94;4941006;29;19930;-79
2021/12/30 08:37:06;;;;;;;;;;;15.00;99.90;;;14.82;100.00;100825.50;4974456;28;20659;-79
2021/12/30 08:39:36;;;;;;;;;;;14.30;99.90;;;14.87;100.00;100828.88;4941830;29;19937;-79
2021/12/30 08:42:05;;;;;;;;;;;14.30;99.90;;;14.87;100.00;100825.34;4941109;29;19930;-80
2021/12/30 08:44:32;;;;;;;;;;;14.30;99.90;;;14.87;100.00;100830.63;4972963;28;19926;-79
2021/12/30 08:46:59;;;;;;;;;;;14.40;99.90;;;14.95;100.00;100818.00;4974434;28;19930;-79
2021/12/30 08:49:26;;;;;;;;;;;14.40;99.90;;;14.94;100.00;100826.88;4960297;28;19930;-79
2021/12/30 08:51:53;;;;;;;;;;;14.40;99.90;;;15.00;100.00;100829.31;4960458;28;19930;-79
2021/12/30 08:54:20;;;;;;;;;;;14.50;99.90;;;14.99;100.00;100805.53;4944206;28;20005;-79
2021/12/30 08:56:47;;;;;;;;;;;14.50;99.90;;;15.02;100.00;100819.50;4960187;28;20033;-79
2021/12/30 08:59:14;;;;;;;;;;;14.90;99.90;;;14.98;100.00;100817.00;4944631;28;20389;-78
2021/12/30 09:01:42;;;;;;;;;;;14.60;99.90;;;15.10;100.00;100813.09;4943871;28;19926;-79
2021/12/30 09:04:09;;;;;;;;;;;14.50;99.90;;;15.15;100.00;100816.41;4958696;28;20482;-79
2021/12/30 09:06:36;;;;;;;;;;;14.50;99.90;;;15.22;100.00;100823.25;4942509;28;19926;-78
2021/12/30 09:09:03;;;;;;;;;;;14.60;99.90;;;15.15;100.00;100833.22;4942550;28;20028;-80
2021/12/30 09:11:30;;;;;;;;;;;14.60;99.90;;;15.20;100.00;100834.81;4941832;28;20383;-79
2021/12/30 09:13:57;;;;;;;;;;;14.80;99.90;;;15.17;100.00;100826.06;4956542;28;19926;-78
2021/12/30 09:16:24;;;;;;;;;;;14.60;99.90;;;15.28;100.00;100822.13;4957558;28;19937;-78
2021/12/30 09:18:51;;;;;;;;;;;16.40;99.90;;;15.33;100.00;100820.19;4958337;28;19957;-79
2021/12/30 09:21:18;;;;;;;;;;;14.30;99.90;;;15.32;100.00;100829.94;4942382;28;19930;-78
2021/12/30 09:23:45;;;;;;;;;;;14.80;99.90;;;15.31;100.00;100822.91;4942604;28;19937;-79
2021/12/30 09:26:12;;;;;;;;;;;14.80;99.90;;;15.34;100.00;100829.88;4959144;28;19926;-78
2021/12/30 09:28:39;;;;;;;;;;;14.80;99.90;;;15.31;100.00;100825.53;4943728;28;19944;-79
2021/12/30 09:31:06;;;;;;;;;;;14.80;99.90;;;15.39;100.00;100827.91;4973576;28;19926;-79
2021/12/30 09:33:33;;;;;;;;;;;14.80;99.90;;;15.41;100.00;100838.47;4954467;28;19930;-78
2021/12/30 09:36:01;;;;;;;;;;;14.90;99.90;;;15.48;100.00;100850.56;4953849;28;19934;-78
2021/12/30 09:38:28;;;;;;;;;;;14.80;99.90;;;15.41;100.00;100849.09;4954896;28;19930;-78
2021/12/30 09:40:56;;;;;;;;;;;15.30;99.90;;;15.47;100.00;100842.69;4939239;28;19927;-79
2021/12/30 09:43:23;;;;;;;;;;;14.90;99.90;;;15.48;100.00;100855.03;4937119;28;19972;-79
2021/12/30 09:45:50;;;;;;;;;;;14.90;99.90;;;15.43;100.00;100866.66;4938408;28;19930;-78
2021/12/30 09:48:17;;;;;;;;;;;14.90;99.90;;;15.38;100.00;100863.31;4954947;28;19966;-78
2021/12/30 09:50:53;;;;;;;;;;;14.90;99.90;;;15.40;100.00;100877.38;4939760;28;19962;-79
2021/12/30 09:53:25;;;;;;;;;;;14.90;99.90;;;15.43;100.00;100868.44;4955128;28;19934;-78
2021/12/30 09:55:56;;;;;;;;;;;14.90;99.90;;;15.48;100.00;100873.59;4954572;28;20012;-78
2021/12/30 09:58:23;;;;;;;;;;;14.80;99.90;;;15.47;100.00;100877.16;4938755;28;19930;-78
2021/12/30 10:00:51;;;;;;;;;;;14.90;99.90;;;15.35;100.00;100874.03;4954569;28;19929;-79
2021/12/30 10:03:24;;;;;;;;;;;14.90;99.90;;;15.44;100.00;100888.75;4954649;28;19930;-78
2021/12/30 10:05:52;;;;;;;;;;;14.90;99.90;;;15.47;100.00;100893.06;4953740;28;19953;-79
2021/12/30 10:08:25;;;;;;;;;;;14.90;99.90;;;15.44;100.00;100886.09;4937806;28;19926;-79
2021/12/30 10:10:55;;;;;;;;;;;14.90;99.90;;;15.44;100.00;100883.44;4969690;28;20024;-78
2021/12/30 10:13:33;;;;;;;;;;;14.90;99.90;;;15.43;100.00;100893.16;4954192;28;19926;-78
2021/12/30 10:16:03;;;;;;;;;;;14.90;99.90;;;15.35;100.00;100905.84;4954536;28;19930;-78
2021/12/30 10:18:56;;;;;;;;;;;14.90;99.90;;;15.44;100.00;100900.19;4938421;28;19934;-78
2021/12/30 10:21:26;;;;;;;;;;;14.90;99.90;;;15.40;100.00;100885.31;4938086;28;19930;-78
2021/12/30 10:23:56;;;;;;;;;;;14.90;99.90;;;15.39;100.00;100880.94;4936457;28;20036;-80
2021/12/30 10:26:23;;;;;;;;;;;15.00;99.90;;;15.39;100.00;100880.09;4952821;28;19930;-78
2021/12/30 10:29:04;;;;;;;;;;;14.90;99.90;;;15.38;100.00;100895.13;4952338;28;19934;-80
2021/12/30 10:31:32;;;;;;;;;;;14.90;99.90;;;15.38;100.00;100891.63;4939889;28;19929;-79
2021/12/30 10:34:01;;;;;;;;;;;14.90;99.90;;;15.32;100.00;100901.50;4955988;28;19926;-79
2021/12/30 10:36:32;;;;;;;;;;;14.90;99.90;;;15.31;100.00;100893.63;4955187;28;19926;-79
2021/12/30 10:39:22;;;;;;;;;;;14.90;99.90;;;15.43;100.00;100902.91;4971816;28;19993;-79
2021/12/30 10:41:53;;;;;;;;;;;14.90;99.90;;;15.31;100.00;100897.13;4953224;29;20357;-79
2021/12/30 10:44:20;;;;;;;;;;;14.90;99.90;;;15.37;100.00;100889.88;4952756;28;20513;-79
2021/12/30 10:46:47;;;;;;;;;;;14.90;99.90;;;15.35;100.00;100884.63;4937383;29;19930;-80
2021/12/30 10:49:24;;;;;;;;;;;14.90;99.90;;;15.44;100.00;100883.44;4937372;29;19930;-79
2021/12/30 10:51:54;;;;;;;;;;;15.00;99.90;;;15.58;100.00;100888.22;4952662;28;19984;-79
2021/12/30 10:54:30;;;;;;;;;;;15.10;99.90;;;15.62;100.00;100878.38;4951752;28;19926;-80
2021/12/30 10:57:08;;;;;;;;;;;15.10;99.90;;;15.64;100.00;100879.19;4937008;29;20002;-79
2021/12/30 10:59:44;;;;;;;;;;;15.20;99.90;;;15.73;100.00;100876.19;4936793;28;19930;-78
2021/12/30 11:02:13;;;;;;;;;;;15.30;99.90;;;15.74;100.00;100870.81;4952930;29;19977;-78
2021/12/30 11:04:43;;;;;;;;;;;15.30;99.90;;;15.82;100.00;100883.78;4936635;29;19926;-78
2021/12/30 11:07:12;;;;;;;;;;;15.40;99.90;;;15.86;100.00;100881.91;4937538;29;20501;-78